createdAt,value
2018-09-30T04:00:27.371Z,1.70
2018-09-30T04:02:55.483Z,1.60
2018-09-30T04:05:24.059Z,1.70
2018-09-30T04:07:52.128Z,1.60
2018-09-30T04:10:20.215Z,1.60
2018-09-30T04:12:48.275Z,1.60
2018-09-30T04:15:16.384Z,1.40
2018-09-30T04:17:44.459Z,1.60
2018-09-30T04:20:12.544Z,1.60
2018-09-30T04:22:40.603Z,1.60
2018-09-30T04:25:08.684Z,1.40
2018-09-30T04:27:38.263Z,1.60
2018-09-30T04:30:06.352Z,1.60
2018-09-30T04:32:34.415Z,1.70
2018-09-30T04:35:02.503Z,1.60
2018-09-30T04:37:30.586Z,1.70
2018-09-30T04:39:58.676Z,1.70
2018-09-30T04:42:26.732Z,1.70
2018-09-30T04:44:54.796Z,1.80
2018-09-30T04:47:22.882Z,1.80
2018-09-30T04:49:50.983Z,1.80
2018-09-30T04:52:19.152Z,1.80
2018-09-30T04:54:47.256Z,1.70
2018-09-30T04:57:15.375Z,1.80
2018-09-30T04:59:43.435Z,1.80
2018-09-30T05:02:11.517Z,1.70
2018-09-30T05:04:39.608Z,1.60
2018-09-30T05:07:09.016Z,1.60
2018-09-30T05:09:37.088Z,1.40
2018-09-30T05:12:05.168Z,1.50
2018-09-30T05:14:33.247Z,1.40
2018-09-30T05:17:01.372Z,1.50
2018-09-30T05:19:29.448Z,1.50
2018-09-30T05:21:57.512Z,1.50
2018-09-30T05:24:25.601Z,1.50
2018-09-30T05:26:53.705Z,1.50
2018-09-30T05:29:21.795Z,1.50
2018-09-30T05:31:49.876Z,1.40
2018-09-30T05:34:17.939Z,1.60
2018-09-30T05:36:46.069Z,1.30
2018-09-30T05:39:14.139Z,1.30
2018-09-30T05:41:42.212Z,1.40
2018-09-30T05:44:10.361Z,1.30
2018-09-30T05:46:40.297Z,1.30
2018-09-30T05:49:08.736Z,1.50
2018-09-30T05:51:36.975Z,1.50
2018-09-30T05:54:05.638Z,1.60
2018-09-30T05:56:33.727Z,1.70
2018-09-30T05:59:01.799Z,1.80
2018-09-30T06:01:29.883Z,2.10
2018-09-30T06:03:57.978Z,2.50
2018-09-30T06:06:26.106Z,3.00
2018-09-30T06:08:54.247Z,3.40
2018-09-30T06:11:22.292Z,4.10
2018-09-30T06:13:50.439Z,5.10
2018-09-30T06:16:18.481Z,6.20
2018-09-30T06:18:46.553Z,6.60
2018-09-30T06:21:14.616Z,6.50
2018-09-30T06:23:42.770Z,6.70
2018-09-30T06:27:13.863Z,7.10
2018-09-30T06:29:41.963Z,7.60
2018-09-30T06:32:10.168Z,7.50
2018-09-30T06:34:38.180Z,7.30
2018-09-30T06:37:06.313Z,7.40
2018-09-30T06:39:34.421Z,7.20
2018-09-30T06:42:02.476Z,7.60
2018-09-30T06:44:30.571Z,7.70
2018-09-30T06:46:59.292Z,7.70
2018-09-30T06:49:27.384Z,7.80
2018-09-30T06:51:55.480Z,8.00
2018-09-30T06:54:25.082Z,8.00
2018-09-30T06:56:53.155Z,8.20
2018-09-30T06:59:21.260Z,8.80
2018-09-30T07:01:49.377Z,8.70
2018-09-30T07:04:17.487Z,8.70
2018-09-30T07:06:45.584Z,9.50
2018-09-30T07:09:13.652Z,10.10
2018-09-30T07:11:41.768Z,10.50
2018-09-30T07:14:09.877Z,10.60
2018-09-30T07:16:37.952Z,10.80
2018-09-30T07:19:06.280Z,11.20
2018-09-30T07:21:35.499Z,11.40
2018-09-30T07:24:03.585Z,11.90
2018-09-30T07:26:31.658Z,11.90
2018-09-30T07:28:59.779Z,12.10
2018-09-30T07:31:27.863Z,12.70
2018-09-30T07:33:55.982Z,12.80
2018-09-30T07:36:24.052Z,13.90
2018-09-30T07:38:52.135Z,14.40
2018-09-30T07:41:20.355Z,15.20
2018-09-30T07:43:49.098Z,15.30
2018-09-30T07:46:17.356Z,15.40
2018-09-30T07:48:45.436Z,16.10
2018-09-30T07:51:13.730Z,16.40
2018-09-30T07:53:42.043Z,15.60
2018-09-30T07:56:10.140Z,15.90
2018-09-30T07:58:38.395Z,16.90
2018-09-30T08:01:06.475Z,17.00
2018-09-30T08:03:39.303Z,16.10
2018-09-30T08:06:09.851Z,15.70
2018-09-30T08:08:41.292Z,16.20
2018-09-30T08:11:11.250Z,16.40
2018-09-30T08:13:40.934Z,17.60
2018-09-30T08:16:11.855Z,18.60
2018-09-30T08:18:42.132Z,18.40
2018-09-30T08:21:14.057Z,18.40
2018-09-30T08:23:48.164Z,18.80
2018-09-30T08:26:16.211Z,19.50
2018-09-30T08:28:44.284Z,20.50
2018-09-30T08:31:12.367Z,20.70
2018-09-30T08:33:40.496Z,20.80
2018-09-30T08:36:10.236Z,20.20
2018-09-30T08:38:42.089Z,20.60
2018-09-30T08:41:12.827Z,20.30
2018-09-30T08:43:44.046Z,19.90
2018-09-30T08:46:12.898Z,20.10
2018-09-30T08:48:42.962Z,20.30
2018-09-30T08:51:12.865Z,19.40
2018-09-30T08:53:42.547Z,18.70
2018-09-30T08:56:11.381Z,19.10
2018-09-30T08:58:41.460Z,20.60
2018-09-30T09:01:09.976Z,20.90
2018-09-30T09:03:38.649Z,20.90
2018-09-30T09:06:08.264Z,20.20
2018-09-30T09:08:36.360Z,20.30
2018-09-30T09:11:04.455Z,20.50
2018-09-30T09:13:32.667Z,20.50
2018-09-30T09:16:00.740Z,20.30
2018-09-30T09:18:28.851Z,20.00
2018-09-30T09:20:56.963Z,21.20
2018-09-30T09:23:25.238Z,22.00
2018-09-30T09:25:53.310Z,21.50
2018-09-30T09:28:21.591Z,23.00
2018-09-30T09:30:56.137Z,23.00
2018-09-30T09:33:24.247Z,23.60
2018-09-30T09:35:53.410Z,23.30
2018-09-30T09:38:21.560Z,22.40
2018-09-30T09:40:49.628Z,21.80
2018-09-30T09:43:19.753Z,22.50
2018-09-30T09:45:49.350Z,23.70
2018-09-30T09:48:20.322Z,24.30
2018-09-30T09:50:48.418Z,24.00
2018-09-30T09:53:17.225Z,24.10
2018-09-30T09:55:49.428Z,24.40
2018-09-30T09:58:19.810Z,24.10
2018-09-30T10:00:47.866Z,24.90
2018-09-30T10:03:18.761Z,25.20
2018-09-30T10:05:48.873Z,26.10
2018-09-30T10:08:17.122Z,27.00
2018-09-30T10:10:45.205Z,30.00
2018-09-30T10:13:13.477Z,31.00
2018-09-30T10:15:43.474Z,29.80
2018-09-30T10:18:11.652Z,29.30
2018-09-30T10:20:39.782Z,32.00
2018-09-30T10:23:07.910Z,31.40
2018-09-30T10:25:36.048Z,31.40
2018-09-30T10:28:04.209Z,31.80
2018-09-30T10:30:32.311Z,32.20
2018-09-30T10:33:00.471Z,31.80
2018-09-30T10:35:28.577Z,30.70
2018-09-30T10:37:58.300Z,31.10
2018-09-30T10:40:26.688Z,30.90
2018-09-30T10:42:54.837Z,29.70
2018-09-30T10:45:22.963Z,30.00
2018-09-30T10:47:51.080Z,29.00
2018-09-30T10:50:23.320Z,30.10
2018-09-30T10:52:51.448Z,32.10
2018-09-30T10:55:20.732Z,33.10
2018-09-30T10:57:48.980Z,32.10
2018-09-30T11:00:17.086Z,31.60
2018-09-30T11:02:45.777Z,33.40
2018-09-30T11:05:14.088Z,34.00
2018-09-30T11:07:42.260Z,35.20
2018-09-30T11:10:10.453Z,34.90
2018-09-30T11:12:38.459Z,32.50
2018-09-30T11:15:06.591Z,32.30
2018-09-30T11:17:34.971Z,32.00
2018-09-30T11:20:03.094Z,32.60
2018-09-30T11:22:31.933Z,33.30
2018-09-30T11:24:59.996Z,33.30
2018-09-30T11:27:28.076Z,34.20
